Arches Natl Park, Utah
Current Conditions -  °F | °C
As of 8:53 AM on Sunday 21 Dec 2014 (Local Time) from KCNY Reporting Station
Overcast Overcast  
Wind Chill: 35°   Ceiling: 2300
Heat Index: 35°   Visibility: 9mi
Dew Point: 33°   Wind: 3mph
Humidity: 92%   Direction: 350°N
Pressure: 30.07"   Gusts: NA
Location:  38.7°N, 109.75°W
Report Text: KCNY 211553Z AUTO 35003KT 9SM OVC023 02/01 A3007 RMK AO2 SLP191 T00170006
Loading
Personal Weather Stations






























Interactive Weather Map New forecast layout! Learn more

10-Day Weather Forecast

Advertisements
Track Severe Weather on mobile